sensor_id;sensor_type;location;lat;lon;timestamp;pressure;altitude;pressure_sealevel;temperature;humidity
11808;BME280;5961;42.640;23.380;2022-10-31T00:01:27;94533.91;;;16.52;53.84
11808;BME280;5961;42.640;23.380;2022-10-31T00:03:54;94517.66;;;16.45;53.82
11808;BME280;5961;42.640;23.380;2022-10-31T00:06:22;94528.06;;;16.46;53.82
11808;BME280;5961;42.640;23.380;2022-10-31T00:08:52;94522.31;;;16.48;54.13
11808;BME280;5961;42.640;23.380;2022-10-31T00:11:19;94519.22;;;16.46;54.21
11808;BME280;5961;42.640;23.380;2022-10-31T00:13:46;94526.91;;;16.47;54.22
11808;BME280;5961;42.640;23.380;2022-10-31T00:16:14;94525.31;;;16.43;54.60
11808;BME280;5961;42.640;23.380;2022-10-31T00:18:42;94523.81;;;16.45;54.71
11808;BME280;5961;42.640;23.380;2022-10-31T00:21:09;94505.53;;;16.32;54.92
11808;BME280;5961;42.640;23.380;2022-10-31T00:23:36;94526.56;;;16.49;54.82
11808;BME280;5961;42.640;23.380;2022-10-31T00:26:04;94522.63;;;16.43;55.07
11808;BME280;5961;42.640;23.380;2022-10-31T00:28:32;94526.91;;;16.47;55.08
11808;BME280;5961;42.640;23.380;2022-10-31T00:31:00;94522.31;;;16.48;55.09
11808;BME280;5961;42.640;23.380;2022-10-31T00:33:27;94527.75;;;16.52;55.08
11808;BME280;5961;42.640;23.380;2022-10-31T00:35:55;94541.50;;;16.50;55.16
11808;BME280;5961;42.640;23.380;2022-10-31T00:38:22;94521.53;;;16.47;55.29
11808;BME280;5961;42.640;23.380;2022-10-31T00:40:49;94530.78;;;16.50;55.11
11808;BME280;5961;42.640;23.380;2022-10-31T00:43:15;94521.69;;;16.55;55.22
11808;BME280;5961;42.640;23.380;2022-10-31T00:45:42;94515.56;;;16.54;55.22
11808;BME280;5961;42.640;23.380;2022-10-31T00:48:09;94515.81;;;16.49;55.37
11808;BME280;5961;42.640;23.380;2022-10-31T00:50:36;94517.91;;;16.56;55.33
11808;BME280;5961;42.640;23.380;2022-10-31T00:53:04;94520.91;;;16.54;55.30
11808;BME280;5961;42.640;23.380;2022-10-31T00:55:33;94512.44;;;16.52;55.46
11808;BME280;5961;42.640;23.380;2022-10-31T00:58:00;94523.28;;;16.59;55.37
11808;BME280;5961;42.640;23.380;2022-10-31T01:00:26;94518.78;;;16.63;55.29
11808;BME280;5961;42.640;23.380;2022-10-31T01:02:53;94523.44;;;16.66;55.16
11808;BME280;5961;42.640;23.380;2022-10-31T01:05:20;94515.63;;;16.58;55.29
11808;BME280;5961;42.640;23.380;2022-10-31T01:07:47;94513.72;;;16.58;55.35
11808;BME280;5961;42.640;23.380;2022-10-31T01:10:15;94526.69;;;16.56;55.65
11808;BME280;5961;42.640;23.380;2022-10-31T01:12:45;94495.25;;;16.34;55.89
11808;BME280;5961;42.640;23.380;2022-10-31T01:15:14;94527.69;;;16.48;55.86
11808;BME280;5961;42.640;23.380;2022-10-31T01:17:41;94520.75;;;16.47;55.69
11808;BME280;5961;42.640;23.380;2022-10-31T01:20:09;94529.25;;;16.49;55.73
11808;BME280;5961;42.640;23.380;2022-10-31T01:22:36;94529.25;;;16.49;55.68
11808;BME280;5961;42.640;23.380;2022-10-31T01:25:04;94522.91;;;16.38;56.00
11808;BME280;5961;42.640;23.380;2022-10-31T01:27:32;94536.84;;;16.47;55.91
11808;BME280;5961;42.640;23.380;2022-10-31T01:29:59;94534.94;;;16.47;55.97
11808;BME280;5961;42.640;23.380;2022-10-31T01:32:26;94544.50;;;16.45;55.83
11808;BME280;5961;42.640;23.380;2022-10-31T01:34:54;94534.19;;;16.47;55.75
11808;BME280;5961;42.640;23.380;2022-10-31T01:37:21;94537.22;;;16.45;55.61
11808;BME280;5961;42.640;23.380;2022-10-31T01:39:48;94531.00;;;16.41;56.02
11808;BME280;5961;42.640;23.380;2022-10-31T01:42:17;94540.63;;;16.42;56.11
11808;BME280;5961;42.640;23.380;2022-10-31T01:44:52;94541.41;;;16.43;56.38
11808;BME280;5961;42.640;23.380;2022-10-31T01:47:24;94548.31;;;16.44;56.38
11808;BME280;5961;42.640;23.380;2022-10-31T01:49:56;94546.06;;;16.46;56.29
11808;BME280;5961;42.640;23.380;2022-10-31T01:52:26;94550.63;;;16.45;56.40
11808;BME280;5961;42.640;23.380;2022-10-31T01:55:00;94546.00;;;16.42;56.52
11808;BME280;5961;42.640;23.380;2022-10-31T01:57:29;94534.47;;;16.42;56.59
11808;BME280;5961;42.640;23.380;2022-10-31T02:00:01;94541.81;;;16.45;57.09
11808;BME280;5961;42.640;23.380;2022-10-31T02:02:30;94528.69;;;16.40;57.22
11808;BME280;5961;42.640;23.380;2022-10-31T02:05:00;94529.03;;;16.38;57.20
11808;BME280;5961;42.640;23.380;2022-10-31T02:07:32;94532.63;;;16.46;57.30
11808;BME280;5961;42.640;23.380;2022-10-31T02:10:02;94539.50;;;16.43;57.51
11808;BME280;5961;42.640;23.380;2022-10-31T02:12:29;94534.34;;;16.35;58.09
11808;BME280;5961;42.640;23.380;2022-10-31T02:14:58;94537.47;;;16.37;58.10
11808;BME280;5961;42.640;23.380;2022-10-31T02:17:26;94543.53;;;16.34;58.25
11808;BME280;5961;42.640;23.380;2022-10-31T02:19:59;94535.91;;;16.36;57.98
11808;BME280;5961;42.640;23.380;2022-10-31T02:22:31;94508.69;;;16.15;58.56
11808;BME280;5961;42.640;23.380;2022-10-31T02:25:20;94542.38;;;16.35;58.67
11808;BME280;5961;42.640;23.380;2022-10-31T02:28:23;94555.03;;;16.34;59.05
11808;BME280;5961;42.640;23.380;2022-10-31T02:31:01;94555.03;;;16.34;58.92
11808;BME280;5961;42.640;23.380;2022-10-31T02:33:35;94554.25;;;16.34;59.27
11808;BME280;5961;42.640;23.380;2022-10-31T02:36:10;94546.22;;;16.34;59.12
11808;BME280;5961;42.640;23.380;2022-10-31T02:38:46;94554.25;;;16.34;58.82
11808;BME280;5961;42.640;23.380;2022-10-31T02:41:19;94560.03;;;16.36;58.93
11808;BME280;5961;42.640;23.380;2022-10-31T02:44:00;94557.34;;;16.36;59.31
11808;BME280;5961;42.640;23.380;2022-10-31T02:46:34;94546.44;;;16.25;59.45
11808;BME280;5961;42.640;23.380;2022-10-31T02:49:07;94564.28;;;16.37;59.55
11808;BME280;5961;42.640;23.380;2022-10-31T02:51:36;94566.53;;;16.35;59.68
11808;BME280;5961;42.640;23.380;2022-10-31T02:54:03;94567.31;;;16.35;59.78
11808;BME280;5961;42.640;23.380;2022-10-31T02:56:30;94567.75;;;16.37;59.72
11808;BME280;5961;42.640;23.380;2022-10-31T02:59:00;94562.38;;;16.37;59.90
11808;BME280;5961;42.640;23.380;2022-10-31T03:05:14;94573.31;;;16.29;60.59
11808;BME280;5961;42.640;23.380;2022-10-31T03:07:51;94567.53;;;16.27;60.57
11808;BME280;5961;42.640;23.380;2022-10-31T03:10:27;94569.09;;;16.28;60.53
11808;BME280;5961;42.640;23.380;2022-10-31T03:13:02;94563.03;;;16.31;60.48
11808;BME280;5961;42.640;23.380;2022-10-31T03:15:33;94563.44;;;16.33;60.29
11808;BME280;5961;42.640;23.380;2022-10-31T03:18:04;94564.22;;;16.33;60.13
11808;BME280;5961;42.640;23.380;2022-10-31T03:20:37;94567.69;;;16.34;60.00
11808;BME280;5961;42.640;23.380;2022-10-31T03:23:06;94564.28;;;16.37;60.01
11808;BME280;5961;42.640;23.380;2022-10-31T03:25:36;94575.78;;;16.37;60.36
11808;BME280;5961;42.640;23.380;2022-10-31T03:28:05;94572.75;;;16.39;60.33
11808;BME280;5961;42.640;23.380;2022-10-31T03:30:35;94578.88;;;16.39;60.56
11808;BME280;5961;42.640;23.380;2022-10-31T03:33:07;94572.75;;;16.39;60.60
11808;BME280;5961;42.640;23.380;2022-10-31T03:35:39;94587.34;;;16.41;60.43
11808;BME280;5961;42.640;23.380;2022-10-31T03:38:08;94577.41;;;16.42;60.46
11808;BME280;5961;42.640;23.380;2022-10-31T03:40:36;94592.38;;;16.43;60.64
11808;BME280;5961;42.640;23.380;2022-10-31T03:43:09;94587.41;;;16.45;60.39
11808;BME280;5961;42.640;23.380;2022-10-31T03:45:40;94584.03;;;16.48;60.09
11808;BME280;5961;42.640;23.380;2022-10-31T03:48:08;94589.41;;;16.48;60.12
11808;BME280;5961;42.640;23.380;2022-10-31T03:50:42;94581.28;;;16.44;60.02
11808;BME280;5961;42.640;23.380;2022-10-31T03:53:14;94583.63;;;16.46;59.67
11808;BME280;5961;42.640;23.380;2022-10-31T03:55:47;94587.00;;;16.43;59.56
11808;BME280;5961;42.640;23.380;2022-10-31T03:58:20;94591.22;;;16.44;59.65
11808;BME280;5961;42.640;23.380;2022-10-31T04:00:48;94589.97;;;16.38;60.01
11808;BME280;5961;42.640;23.380;2022-10-31T04:03:20;94592.63;;;16.38;60.04
11808;BME280;5961;42.640;23.380;2022-10-31T04:05:52;94606.50;;;16.40;60.08
11808;BME280;5961;42.640;23.380;2022-10-31T04:08:23;94602.25;;;16.39;60.19
11808;BME280;5961;42.640;23.380;2022-10-31T04:10:51;94603.38;;;16.38;60.10
11808;BME280;5961;42.640;23.380;2022-10-31T04:13:22;94607.22;;;16.37;60.12
11808;BME280;5961;42.640;23.380;2022-10-31T04:15:52;94609.44;;;16.35;60.19
11808;BME280;5961;42.640;23.380;2022-10-31T04:18:21;94598.59;;;16.28;60.30
11808;BME280;5961;42.640;23.380;2022-10-31T04:20:59;94616.22;;;16.29;60.39
11808;BME280;5961;42.640;23.380;2022-10-31T04:23:27;94558.66;;;15.84;60.94
11808;BME280;5961;42.640;23.380;2022-10-31T04:25:54;94604.53;;;16.18;60.87
11808;BME280;5961;42.640;23.380;2022-10-31T04:28:21;94600.97;;;16.14;60.84
11808;BME280;5961;42.640;23.380;2022-10-31T04:30:48;94595.75;;;16.02;61.16
11808;BME280;5961;42.640;23.380;2022-10-31T04:33:15;94614.88;;;16.00;62.13
11808;BME280;5961;42.640;23.380;2022-10-31T04:35:42;94615.50;;;15.93;62.75
11808;BME280;5961;42.640;23.380;2022-10-31T04:38:10;94615.09;;;15.91;62.86
11808;BME280;5961;42.640;23.380;2022-10-31T04:40:36;94611.63;;;15.91;62.77
11808;BME280;5961;42.640;23.380;2022-10-31T04:43:03;94609.56;;;15.84;63.25
11808;BME280;5961;42.640;23.380;2022-10-31T04:45:30;94620.00;;;15.89;63.18
11808;BME280;5961;42.640;23.380;2022-10-31T04:47:56;94611.97;;;15.89;63.09
11808;BME280;5961;42.640;23.380;2022-10-31T04:50:23;94628.06;;;15.89;63.28
11808;BME280;5961;42.640;23.380;2022-10-31T04:52:53;94625.38;;;15.89;63.25
11808;BME280;5961;42.640;23.380;2022-10-31T04:55:36;94627.34;;;15.92;63.32
11808;BME280;5961;42.640;23.380;2022-10-31T04:58:04;94636.97;;;15.93;63.05
11808;BME280;5961;42.640;23.380;2022-10-31T05:00:31;94628.25;;;15.81;63.33
11808;BME280;5961;42.640;23.380;2022-10-31T05:02:58;94629.19;;;15.88;63.16
11808;BME280;5961;42.640;23.380;2022-10-31T05:05:27;94624.53;;;15.85;63.23
11808;BME280;5961;42.640;23.380;2022-10-31T05:07:54;94626.16;;;15.90;63.18
11808;BME280;5961;42.640;23.380;2022-10-31T05:10:23;94616.06;;;15.83;63.29
11808;BME280;5961;42.640;23.380;2022-10-31T05:12:55;94635.72;;;15.72;63.95
11808;BME280;5961;42.640;23.380;2022-10-31T05:15:23;94633.13;;;15.75;63.65
11808;BME280;5961;42.640;23.380;2022-10-31T05:17:51;94620.00;;;15.70;65.43
11808;BME280;5961;42.640;23.380;2022-10-31T05:20:19;94612.00;;;15.55;64.72
11808;BME280;5961;42.640;23.380;2022-10-31T05:22:48;94638.13;;;15.77;64.21
11808;BME280;5961;42.640;23.380;2022-10-31T05:25:15;94643.84;;;15.75;64.04
11808;BME280;5961;42.640;23.380;2022-10-31T05:27:43;94652.06;;;15.67;64.28
11808;BME280;5961;42.640;23.380;2022-10-31T05:30:13;94644.72;;;15.64;64.40
11808;BME280;5961;42.640;23.380;2022-10-31T05:32:41;94652.50;;;15.69;64.47
11808;BME280;5961;42.640;23.380;2022-10-31T05:35:11;94654.84;;;15.70;64.47
11808;BME280;5961;42.640;23.380;2022-10-31T05:37:38;94657.00;;;15.65;64.90
11808;BME280;5961;42.640;23.380;2022-10-31T05:40:08;94658.22;;;15.67;64.80
11808;BME280;5961;42.640;23.380;2022-10-31T05:42:35;94664.69;;;15.66;64.73
11808;BME280;5961;42.640;23.380;2022-10-31T05:45:02;94664.50;;;15.59;64.89
11808;BME280;5961;42.640;23.380;2022-10-31T05:47:30;94663.94;;;15.50;64.85
11808;BME280;5961;42.640;23.380;2022-10-31T05:49:57;94664.38;;;15.52;64.85
11808;BME280;5961;42.640;23.380;2022-10-31T05:52:24;94661.06;;;15.43;65.18
11808;BME280;5961;42.640;23.380;2022-10-31T05:54:50;94661.41;;;15.42;65.43
11808;BME280;5961;42.640;23.380;2022-10-31T05:57:17;94672.56;;;15.44;65.30
11808;BME280;5961;42.640;23.380;2022-10-31T05:59:44;94666.50;;;15.47;65.36
11808;BME280;5961;42.640;23.380;2022-10-31T06:02:10;94671.53;;;15.48;65.38
11808;BME280;5961;42.640;23.380;2022-10-31T06:04:38;94677.13;;;15.43;65.54
11808;BME280;5961;42.640;23.380;2022-10-31T06:07:05;94681.63;;;15.39;65.99
11808;BME280;5961;42.640;23.380;2022-10-31T06:09:32;94678.59;;;15.41;65.79
11808;BME280;5961;42.640;23.380;2022-10-31T06:11:58;94684.56;;;15.34;65.89
11808;BME280;5961;42.640;23.380;2022-10-31T06:14:25;94690.00;;;15.37;65.74
11808;BME280;5961;42.640;23.380;2022-10-31T06:16:52;94698.84;;;15.38;65.68
11808;BME280;5961;42.640;23.380;2022-10-31T06:19:20;94688.44;;;15.36;65.76
11808;BME280;5961;42.640;23.380;2022-10-31T06:21:48;94683.88;;;15.37;65.81
11808;BME280;5961;42.640;23.380;2022-10-31T06:24:14;94702.72;;;15.41;66.19
11808;BME280;5961;42.640;23.380;2022-10-31T06:26:41;94709.03;;;15.48;65.89
11808;BME280;5961;42.640;23.380;2022-10-31T06:29:08;94711.91;;;15.55;65.71
11808;BME280;5961;42.640;23.380;2022-10-31T06:31:34;94705.84;;;15.58;65.62
11808;BME280;5961;42.640;23.380;2022-10-31T06:34:01;94710.25;;;15.66;65.60
11808;BME280;5961;42.640;23.380;2022-10-31T06:36:28;94709.97;;;15.71;65.31
11808;BME280;5961;42.640;23.380;2022-10-31T06:38:56;94703.91;;;15.74;65.26
11808;BME280;5961;42.640;23.380;2022-10-31T06:41:23;94722.44;;;15.79;65.27
11808;BME280;5961;42.640;23.380;2022-10-31T06:43:49;94721.47;;;15.87;65.12
11808;BME280;5961;42.640;23.380;2022-10-31T06:46:16;94721.81;;;15.86;65.43
11808;BME280;5961;42.640;23.380;2022-10-31T06:48:43;94702.38;;;15.73;65.49
11808;BME280;5961;42.640;23.380;2022-10-31T06:51:09;94716.09;;;15.87;65.30
11808;BME280;5961;42.640;23.380;2022-10-31T06:53:36;94721.19;;;15.92;65.61
11808;BME280;5961;42.640;23.380;2022-10-31T06:56:04;94716.25;;;15.95;65.62
11808;BME280;5961;42.640;23.380;2022-10-31T06:58:31;94725.59;;;16.01;65.67
11808;BME280;5961;42.640;23.380;2022-10-31T07:00:59;94720.22;;;16.01;65.86
11808;BME280;5961;42.640;23.380;2022-10-31T07:03:25;94720.81;;;16.10;65.61
11808;BME280;5961;42.640;23.380;2022-10-31T07:05:54;94724.78;;;16.16;65.56
11808;BME280;5961;42.640;23.380;2022-10-31T07:08:21;94722.09;;;16.16;65.61
11808;BME280;5961;42.640;23.380;2022-10-31T07:10:51;94706.78;;;16.16;65.69
11808;BME280;5961;42.640;23.380;2022-10-31T07:13:20;94720.91;;;16.32;65.49
11808;BME280;5961;42.640;23.380;2022-10-31T07:15:51;94724.09;;;16.38;65.19
11808;BME280;5961;42.640;23.380;2022-10-31T07:18:18;94711.53;;;16.42;65.13
11808;BME280;5961;42.640;23.380;2022-10-31T07:20:45;94718.59;;;16.50;64.89
11808;BME280;5961;42.640;23.380;2022-10-31T07:23:13;94714.13;;;16.54;64.76
11808;BME280;5961;42.640;23.380;2022-10-31T07:25:40;94712.00;;;16.63;64.50
11808;BME280;5961;42.640;23.380;2022-10-31T07:28:07;94710.19;;;16.67;64.46
11808;BME280;5961;42.640;23.380;2022-10-31T07:30:36;94697.94;;;16.70;64.51
11808;BME280;5961;42.640;23.380;2022-10-31T07:33:03;94701.53;;;16.77;64.28
11808;BME280;5961;42.640;23.380;2022-10-31T07:35:30;94700.72;;;16.73;64.44
11808;BME280;5961;42.640;23.380;2022-10-31T07:37:58;94696.06;;;16.70;64.54
11808;BME280;5961;42.640;23.380;2022-10-31T07:40:32;94708.31;;;16.71;64.75
11808;BME280;5961;42.640;23.380;2022-10-31T07:42:59;94708.75;;;16.73;64.86
11808;BME280;5961;42.640;23.380;2022-10-31T07:45:26;94708.38;;;16.75;64.80
11808;BME280;5961;42.640;23.380;2022-10-31T07:47:54;94712.28;;;16.77;64.94
11808;BME280;5961;42.640;23.380;2022-10-31T07:50:22;94711.56;;;16.80;64.86
11808;BME280;5961;42.640;23.380;2022-10-31T07:52:58;94703.16;;;16.82;64.56
11808;BME280;5961;42.640;23.380;2022-10-31T07:55:24;94708.63;;;16.85;64.49
11808;BME280;5961;42.640;23.380;2022-10-31T07:57:55;94707.03;;;16.84;64.37
11808;BME280;5961;42.640;23.380;2022-10-31T08:00:22;94714.81;;;16.89;64.44
11808;BME280;5961;42.640;23.380;2022-10-31T08:02:57;94704.44;;;16.88;64.20
11808;BME280;5961;42.640;23.380;2022-10-31T08:05:24;94709.56;;;16.96;64.01
11808;BME280;5961;42.640;23.380;2022-10-31T08:07:51;94718.03;;;16.98;63.98
11808;BME280;5961;42.640;23.380;2022-10-31T08:10:17;94707.03;;;17.04;63.87
11808;BME280;5961;42.640;23.380;2022-10-31T08:12:44;94712.88;;;17.09;63.68
11808;BME280;5961;42.640;23.380;2022-10-31T08:15:11;94704.53;;;17.14;63.53
11808;BME280;5961;42.640;23.380;2022-10-31T08:17:38;94712.72;;;17.21;63.18
11808;BME280;5961;42.640;23.380;2022-10-31T08:20:07;94699.16;;;17.14;63.13
11808;BME280;5961;42.640;23.380;2022-10-31T08:22:33;94704.72;;;17.25;62.85
11808;BME280;5961;42.640;23.380;2022-10-31T08:25:00;94716.44;;;17.36;62.74
11808;BME280;5961;42.640;23.380;2022-10-31T08:27:27;94719.19;;;17.39;62.61
11808;BME280;5961;42.640;23.380;2022-10-31T08:29:54;94724.63;;;17.43;62.34
11808;BME280;5961;42.640;23.380;2022-10-31T08:32:20;94708.91;;;17.45;62.05
11808;BME280;5961;42.640;23.380;2022-10-31T08:34:47;94713.63;;;17.51;62.11
11808;BME280;5961;42.640;23.380;2022-10-31T08:37:15;94711.81;;;17.56;61.74
11808;BME280;5961;42.640;23.380;2022-10-31T08:39:45;94719.09;;;17.55;61.76
11808;BME280;5961;42.640;23.380;2022-10-31T08:42:12;94708.44;;;17.62;61.41
11808;BME280;5961;42.640;23.380;2022-10-31T08:44:38;94700.75;;;17.61;61.72
11808;BME280;5961;42.640;23.380;2022-10-31T08:47:05;94698.28;;;17.52;61.70
11808;BME280;5961;42.640;23.380;2022-10-31T08:49:32;94711.44;;;17.57;61.24
11808;BME280;5961;42.640;23.380;2022-10-31T08:51:59;94710.06;;;17.67;61.53
11808;BME280;5961;42.640;23.380;2022-10-31T08:54:27;94703.91;;;17.66;61.59
11808;BME280;5961;42.640;23.380;2022-10-31T08:56:54;94700.50;;;17.69;61.68
11808;BME280;5961;42.640;23.380;2022-10-31T08:59:21;94699.72;;;17.69;61.63
11808;BME280;5961;42.640;23.380;2022-10-31T09:01:48;94700.19;;;17.74;61.75
11808;BME280;5961;42.640;23.380;2022-10-31T09:04:15;94693.28;;;17.73;61.60
11808;BME280;5961;42.640;23.380;2022-10-31T09:06:41;94673.09;;;17.60;61.63
11808;BME280;5961;42.640;23.380;2022-10-31T09:09:08;94702.25;;;17.84;61.48
11808;BME280;5961;42.640;23.380;2022-10-31T09:11:36;94699.25;;;17.89;61.48
11808;BME280;5961;42.640;23.380;2022-10-31T09:14:03;94696.63;;;17.93;61.13
11808;BME280;5961;42.640;23.380;2022-10-31T09:16:30;94701.66;;;17.94;61.41
11808;BME280;5961;42.640;23.380;2022-10-31T09:18:56;94703.63;;;17.97;61.35
11808;BME280;5961;42.640;23.380;2022-10-31T09:21:23;94703.63;;;17.97;60.96
11808;BME280;5961;42.640;23.380;2022-10-31T09:23:49;94696.75;;;18.00;61.13
11808;BME280;5961;42.640;23.380;2022-10-31T09:26:19;94699.50;;;18.03;61.06
11808;BME280;5961;42.640;23.380;2022-10-31T09:28:47;94701.47;;;18.10;60.76
11808;BME280;5961;42.640;23.380;2022-10-31T09:31:13;94698.03;;;18.09;60.84
11808;BME280;5961;42.640;23.380;2022-10-31T09:33:40;94624.88;;;17.48;60.86
11808;BME280;5961;42.640;23.380;2022-10-31T09:36:07;94698.16;;;18.20;60.80
11808;BME280;5961;42.640;23.380;2022-10-31T09:38:34;94707.84;;;18.25;60.60
11808;BME280;5961;42.640;23.380;2022-10-31T09:41:07;94706.34;;;18.27;60.50
11808;BME280;5961;42.640;23.380;2022-10-31T09:43:41;94698.72;;;18.33;60.28
11808;BME280;5961;42.640;23.380;2022-10-31T09:46:16;94701.03;;;18.34;60.00
11808;BME280;5961;42.640;23.380;2022-10-31T09:49:01;94696.13;;;18.40;59.85
11808;BME280;5961;42.640;23.380;2022-10-31T09:51:37;94690.03;;;18.43;59.62
11808;BME280;5961;42.640;23.380;2022-10-31T09:54:10;94686.97;;;18.44;59.51
11808;BME280;5961;42.640;23.380;2022-10-31T09:56:38;94687.47;;;18.53;59.35
11808;BME280;5961;42.640;23.380;2022-10-31T09:59:11;94697.53;;;18.56;59.15
11808;BME280;5961;42.640;23.380;2022-10-31T10:01:45;94687.63;;;18.64;58.99
11808;BME280;5961;42.640;23.380;2022-10-31T10:04:26;94687.69;;;18.71;58.72
11808;BME280;5961;42.640;23.380;2022-10-31T10:06:54;94673.91;;;18.76;58.78
11808;BME280;5961;42.640;23.380;2022-10-31T10:09:26;94676.66;;;18.83;57.63
11808;BME280;5961;42.640;23.380;2022-10-31T10:12:01;94669.47;;;18.91;57.08
11808;BME280;5961;42.640;23.380;2022-10-31T10:14:40;94667.16;;;18.93;56.65
11808;BME280;5961;42.640;23.380;2022-10-31T10:17:21;94669.25;;;19.06;56.24
11808;BME280;5961;42.640;23.380;2022-10-31T10:20:07;94668.16;;;19.14;55.73
11808;BME280;5961;42.640;23.380;2022-10-31T10:22:42;94674.41;;;19.26;56.15
11808;BME280;5961;42.640;23.380;2022-10-31T10:25:15;94674.13;;;19.38;56.01
11808;BME280;5961;42.640;23.380;2022-10-31T10:28:00;94650.66;;;19.38;55.56
11808;BME280;5961;42.640;23.380;2022-10-31T10:30:34;94662.41;;;19.60;55.40
11808;BME280;5961;42.640;23.380;2022-10-31T10:33:09;94659.44;;;19.72;54.02
11808;BME280;5961;42.640;23.380;2022-10-31T10:35:39;94649.91;;;19.85;53.34
11808;BME280;5961;42.640;23.380;2022-10-31T10:38:15;94644.94;;;19.98;52.29
11808;BME280;5961;42.640;23.380;2022-10-31T10:40:43;94643.88;;;20.09;51.84
11808;BME280;5961;42.640;23.380;2022-10-31T10:43:20;94631.19;;;20.17;51.38
11808;BME280;5961;42.640;23.380;2022-10-31T10:45:54;94632.81;;;20.32;50.86
11808;BME280;5961;42.640;23.380;2022-10-31T10:48:44;94642.94;;;20.53;49.98
11808;BME280;5961;42.640;23.380;2022-10-31T10:51:21;94638.72;;;20.59;49.75
11808;BME280;5961;42.640;23.380;2022-10-31T10:54:03;94641.84;;;20.61;49.53
11808;BME280;5961;42.640;23.380;2022-10-31T10:56:50;94627.94;;;20.66;49.67
11808;BME280;5961;42.640;23.380;2022-10-31T10:59:21;94626.00;;;20.63;49.19
11808;BME280;5961;42.640;23.380;2022-10-31T11:01:50;94637.28;;;21.00;48.60
11808;BME280;5961;42.640;23.380;2022-10-31T11:04:31;94635.03;;;21.16;47.71
11808;BME280;5961;42.640;23.380;2022-10-31T11:07:00;94638.91;;;21.29;47.25
11808;BME280;5961;42.640;23.380;2022-10-31T11:09:27;94629.28;;;21.39;46.79
11808;BME280;5961;42.640;23.380;2022-10-31T11:11:54;94626.56;;;21.50;46.39
11808;BME280;5961;42.640;23.380;2022-10-31T11:14:22;94619.22;;;21.54;46.11
11808;BME280;5961;42.640;23.380;2022-10-31T11:16:51;94622.69;;;21.72;45.76
11808;BME280;5961;42.640;23.380;2022-10-31T11:19:19;94633.88;;;21.81;45.15
11808;BME280;5961;42.640;23.380;2022-10-31T11:21:49;94623.47;;;21.94;44.71
11808;BME280;5961;42.640;23.380;2022-10-31T11:24:17;94619.56;;;22.05;44.41
11808;BME280;5961;42.640;23.380;2022-10-31T11:26:46;94620.72;;;22.08;43.97
11808;BME280;5961;42.640;23.380;2022-10-31T11:29:16;94585.16;;;21.99;43.96
11808;BME280;5961;42.640;23.380;2022-10-31T11:31:44;94608.69;;;22.12;43.97
11808;BME280;5961;42.640;23.380;2022-10-31T11:34:20;94609.09;;;22.14;43.38
11808;BME280;5961;42.640;23.380;2022-10-31T11:36:52;94595.53;;;22.21;43.60
11808;BME280;5961;42.640;23.380;2022-10-31T11:39:21;94600.16;;;22.24;43.58
11808;BME280;5961;42.640;23.380;2022-10-31T11:41:50;94599.00;;;22.29;43.52
11808;BME280;5961;42.640;23.380;2022-10-31T11:44:20;94567.72;;;22.07;43.68
11808;BME280;5961;42.640;23.380;2022-10-31T11:46:50;94596.66;;;22.27;43.42
11808;BME280;5961;42.640;23.380;2022-10-31T11:49:20;94596.66;;;22.27;43.43
11808;BME280;5961;42.640;23.380;2022-10-31T11:51:53;94585.06;;;22.30;43.19
11808;BME280;5961;42.640;23.380;2022-10-31T11:54:22;94593.91;;;22.45;42.90
11808;BME280;5961;42.640;23.380;2022-10-31T11:56:50;94586.13;;;22.54;42.29
11808;BME280;5961;42.640;23.380;2022-10-31T11:59:25;94586.47;;;22.67;42.44
11808;BME280;5961;42.640;23.380;2022-10-31T12:01:53;94591.88;;;22.67;42.33
11808;BME280;5961;42.640;23.380;2022-10-31T12:04:27;94574.03;;;22.73;42.06
11808;BME280;5961;42.640;23.380;2022-10-31T12:06:57;94574.78;;;22.84;41.78
11808;BME280;5961;42.640;23.380;2022-10-31T12:09:26;94589.78;;;22.95;41.91
11808;BME280;5961;42.640;23.380;2022-10-31T12:12:18;94582.38;;;23.03;40.60
11808;BME280;5961;42.640;23.380;2022-10-31T12:15:04;94586.56;;;23.15;40.16
11808;BME280;5961;42.640;23.380;2022-10-31T12:17:41;94576.06;;;23.20;39.86
11808;BME280;5961;42.640;23.380;2022-10-31T12:20:20;94575.78;;;23.59;39.85
11808;BME280;5961;42.640;23.380;2022-10-31T12:22:58;94585.50;;;23.94;39.48
11808;BME280;5961;42.640;23.380;2022-10-31T12:25:38;94585.50;;;24.35;38.18
11808;BME280;5961;42.640;23.380;2022-10-31T12:28:19;94575.97;;;24.80;37.16
11808;BME280;5961;42.640;23.380;2022-10-31T12:31:03;94584.19;;;25.30;35.87
11808;BME280;5961;42.640;23.380;2022-10-31T12:33:47;94579.19;;;25.75;34.55
11808;BME280;5961;42.640;23.380;2022-10-31T12:36:29;94582.50;;;26.29;33.93
11808;BME280;5961;42.640;23.380;2022-10-31T12:39:19;94583.13;;;26.76;32.73
11808;BME280;5961;42.640;23.380;2022-10-31T12:41:52;94579.22;;;27.13;31.90
11808;BME280;5961;42.640;23.380;2022-10-31T12:44:33;94585.41;;;27.49;31.15
11808;BME280;5961;42.640;23.380;2022-10-31T12:47:17;94583.81;;;27.68;30.45
11808;BME280;5961;42.640;23.380;2022-10-31T12:49:56;94589.66;;;27.66;29.80
11808;BME280;5961;42.640;23.380;2022-10-31T12:52:35;94580.78;;;27.62;30.23
11808;BME280;5961;42.640;23.380;2022-10-31T12:55:25;94591.91;;;27.55;30.38
11808;BME280;5961;42.640;23.380;2022-10-31T12:58:00;94585.03;;;27.31;30.63
11808;BME280;5961;42.640;23.380;2022-10-31T13:00:31;94599.84;;;27.14;30.78
11808;BME280;5961;42.640;23.380;2022-10-31T13:03:21;94595.44;;;26.84;31.81
11808;BME280;5961;42.640;23.380;2022-10-31T13:05:52;94584.53;;;26.64;31.75
11808;BME280;5961;42.640;23.380;2022-10-31T13:08:25;94580.34;;;26.60;32.22
11808;BME280;5961;42.640;23.380;2022-10-31T13:11:02;94571.38;;;26.59;32.41
11808;BME280;5961;42.640;23.380;2022-10-31T13:13:37;94586.00;;;26.89;32.02
11808;BME280;5961;42.640;23.380;2022-10-31T13:16:11;94580.75;;;27.14;31.82
11808;BME280;5961;42.640;23.380;2022-10-31T13:18:43;94576.00;;;27.34;31.07
11808;BME280;5961;42.640;23.380;2022-10-31T13:21:16;94585.56;;;27.74;30.85